sensor_id;sensor_type;location;lat;lon;timestamp;P1;durP1;ratioP1;P2;durP2;ratioP2
12908;SDS011;6522;49.622;6.126;2024-03-02T00:00:19;10.70;;;10.20;;
12908;SDS011;6522;49.622;6.126;2024-03-02T00:03:06;10.70;;;10.10;;
12908;SDS011;6522;49.622;6.126;2024-03-02T00:05:52;10.90;;;10.30;;
12908;SDS011;6522;49.622;6.126;2024-03-02T00:08:39;10.43;;;9.95;;
12908;SDS011;6522;49.622;6.126;2024-03-02T00:11:26;10.45;;;9.93;;
12908;SDS011;6522;49.622;6.126;2024-03-02T00:14:12;11.15;;;10.32;;
12908;SDS011;6522;49.622;6.126;2024-03-02T00:16:59;8.55;;;7.75;;
12908;SDS011;6522;49.622;6.126;2024-03-02T00:19:46;10.63;;;10.13;;
12908;SDS011;6522;49.622;6.126;2024-03-02T00:22:34;11.00;;;10.40;;
12908;SDS011;6522;49.622;6.126;2024-03-02T00:25:19;10.65;;;10.00;;
12908;SDS011;6522;49.622;6.126;2024-03-02T00:28:16;10.23;;;9.70;;
12908;SDS011;6522;49.622;6.126;2024-03-02T00:31:06;10.80;;;10.20;;
12908;SDS011;6522;49.622;6.126;2024-03-02T00:33:52;10.10;;;9.68;;
12908;SDS011;6522;49.622;6.126;2024-03-02T00:36:39;10.10;;;9.60;;
12908;SDS011;6522;49.622;6.126;2024-03-02T00:39:26;10.98;;;10.38;;
12908;SDS011;6522;49.622;6.126;2024-03-02T00:42:13;10.73;;;10.23;;
12908;SDS011;6522;49.622;6.126;2024-03-02T00:45:00;10.88;;;10.07;;
12908;SDS011;6522;49.622;6.126;2024-03-02T00:47:46;10.10;;;9.60;;
12908;SDS011;6522;49.622;6.126;2024-03-02T00:50:33;11.38;;;10.65;;
12908;SDS011;6522;49.622;6.126;2024-03-02T00:53:21;11.55;;;10.60;;
12908;SDS011;6522;49.622;6.126;2024-03-02T00:56:09;11.30;;;10.60;;
12908;SDS011;6522;49.622;6.126;2024-03-02T00:58:53;10.98;;;10.38;;
12908;SDS011;6522;49.622;6.126;2024-03-02T01:01:40;11.05;;;10.55;;
12908;SDS011;6522;49.622;6.126;2024-03-02T01:04:27;11.85;;;11.27;;
12908;SDS011;6522;49.622;6.126;2024-03-02T01:07:13;12.55;;;11.88;;
12908;SDS011;6522;49.622;6.126;2024-03-02T01:10:00;12.15;;;11.35;;
12908;SDS011;6522;49.622;6.126;2024-03-02T01:12:47;11.55;;;10.85;;
12908;SDS011;6522;49.622;6.126;2024-03-02T01:15:33;11.65;;;11.00;;
12908;SDS011;6522;49.622;6.126;2024-03-02T01:18:20;12.05;;;11.55;;
12908;SDS011;6522;49.622;6.126;2024-03-02T01:21:06;12.40;;;11.80;;
12908;SDS011;6522;49.622;6.126;2024-03-02T01:23:53;12.05;;;11.15;;
12908;SDS011;6522;49.622;6.126;2024-03-02T01:26:40;10.30;;;9.70;;
12908;SDS011;6522;49.622;6.126;2024-03-02T01:29:27;9.00;;;8.50;;
12908;SDS011;6522;49.622;6.126;2024-03-02T01:32:13;9.80;;;9.30;;
12908;SDS011;6522;49.622;6.126;2024-03-02T01:35:00;13.25;;;12.48;;
12908;SDS011;6522;49.622;6.126;2024-03-02T01:37:47;9.57;;;8.88;;
12908;SDS011;6522;49.622;6.126;2024-03-02T01:40:34;12.80;;;12.20;;
12908;SDS011;6522;49.622;6.126;2024-03-02T01:43:20;11.95;;;11.32;;
12908;SDS011;6522;49.622;6.126;2024-03-02T01:46:07;12.68;;;11.90;;
12908;SDS011;6522;49.622;6.126;2024-03-02T01:48:53;12.60;;;11.90;;
12908;SDS011;6522;49.622;6.126;2024-03-02T01:51:40;12.48;;;11.88;;
12908;SDS011;6522;49.622;6.126;2024-03-02T01:54:27;9.10;;;8.60;;
12908;SDS011;6522;49.622;6.126;2024-03-02T01:57:14;12.20;;;11.70;;
12908;SDS011;6522;49.622;6.126;2024-03-02T02:00:00;11.98;;;11.20;;
12908;SDS011;6522;49.622;6.126;2024-03-02T02:02:50;11.73;;;11.23;;
12908;SDS011;6522;49.622;6.126;2024-03-02T02:05:37;11.75;;;11.25;;
12908;SDS011;6522;49.622;6.126;2024-03-02T02:08:24;11.50;;;10.95;;
12908;SDS011;6522;49.622;6.126;2024-03-02T02:11:10;11.90;;;11.30;;
12908;SDS011;6522;49.622;6.126;2024-03-02T02:13:57;11.02;;;10.50;;
12908;SDS011;6522;49.622;6.126;2024-03-02T02:16:44;11.10;;;10.50;;
12908;SDS011;6522;49.622;6.126;2024-03-02T02:19:30;12.25;;;11.35;;
12908;SDS011;6522;49.622;6.126;2024-03-02T02:22:17;11.23;;;10.63;;
12908;SDS011;6522;49.622;6.126;2024-03-02T02:25:04;10.68;;;9.88;;
12908;SDS011;6522;49.622;6.126;2024-03-02T02:27:51;9.43;;;8.93;;
12908;SDS011;6522;49.622;6.126;2024-03-02T02:30:38;7.40;;;7.00;;
12908;SDS011;6522;49.622;6.126;2024-03-02T02:33:24;7.00;;;6.50;;
12908;SDS011;6522;49.622;6.126;2024-03-02T02:36:11;6.72;;;6.40;;
12908;SDS011;6522;49.622;6.126;2024-03-02T02:38:58;5.95;;;5.45;;
12908;SDS011;6522;49.622;6.126;2024-03-02T02:41:44;6.62;;;6.18;;
12908;SDS011;6522;49.622;6.126;2024-03-02T02:44:31;6.30;;;5.93;;
12908;SDS011;6522;49.622;6.126;2024-03-02T02:47:18;5.10;;;4.80;;
12908;SDS011;6522;49.622;6.126;2024-03-02T02:50:06;4.30;;;4.10;;
12908;SDS011;6522;49.622;6.126;2024-03-02T02:52:52;5.15;;;3.97;;
12908;SDS011;6522;49.622;6.126;2024-03-02T02:55:42;3.45;;;3.25;;
12908;SDS011;6522;49.622;6.126;2024-03-02T02:58:28;3.28;;;2.90;;
12908;SDS011;6522;49.622;6.126;2024-03-02T03:01:16;2.10;;;1.80;;
12908;SDS011;6522;49.622;6.126;2024-03-02T03:04:02;3.28;;;3.08;;
12908;SDS011;6522;49.622;6.126;2024-03-02T03:06:49;3.20;;;3.00;;
12908;SDS011;6522;49.622;6.126;2024-03-02T03:09:37;2.90;;;2.70;;
12908;SDS011;6522;49.622;6.126;2024-03-02T03:12:22;3.17;;;2.85;;
12908;SDS011;6522;49.622;6.126;2024-03-02T03:15:09;2.70;;;2.50;;
12908;SDS011;6522;49.622;6.126;2024-03-02T03:17:56;2.78;;;2.58;;
12908;SDS011;6522;49.622;6.126;2024-03-02T03:20:42;2.40;;;2.20;;
12908;SDS011;6522;49.622;6.126;2024-03-02T03:23:29;1.98;;;1.87;;
12908;SDS011;6522;49.622;6.126;2024-03-02T03:26:16;2.50;;;2.30;;
12908;SDS011;6522;49.622;6.126;2024-03-02T03:29:03;2.60;;;2.40;;
12908;SDS011;6522;49.622;6.126;2024-03-02T03:31:50;3.08;;;2.80;;
12908;SDS011;6522;49.622;6.126;2024-03-02T03:34:37;2.65;;;2.22;;
12908;SDS011;6522;49.622;6.126;2024-03-02T03:37:23;4.93;;;2.60;;
12908;SDS011;6522;49.622;6.126;2024-03-02T03:40:10;3.78;;;3.35;;
12908;SDS011;6522;49.622;6.126;2024-03-02T03:42:57;6.18;;;3.25;;
12908;SDS011;6522;49.622;6.126;2024-03-02T03:45:44;2.85;;;2.50;;
12908;SDS011;6522;49.622;6.126;2024-03-02T03:48:31;3.05;;;2.30;;
12908;SDS011;6522;49.622;6.126;2024-03-02T03:51:18;2.45;;;2.22;;
12908;SDS011;6522;49.622;6.126;2024-03-02T03:54:05;3.33;;;3.12;;
12908;SDS011;6522;49.622;6.126;2024-03-02T03:56:51;4.75;;;3.03;;
12908;SDS011;6522;49.622;6.126;2024-03-02T03:59:38;2.30;;;2.10;;
12908;SDS011;6522;49.622;6.126;2024-03-02T04:02:25;2.33;;;2.12;;
12908;SDS011;6522;49.622;6.126;2024-03-02T04:05:12;1.90;;;1.80;;
12908;SDS011;6522;49.622;6.126;2024-03-02T04:07:58;2.08;;;1.98;;
12908;SDS011;6522;49.622;6.126;2024-03-02T04:10:45;2.20;;;2.10;;
12908;SDS011;6522;49.622;6.126;2024-03-02T04:13:31;3.45;;;2.30;;
12908;SDS011;6522;49.622;6.126;2024-03-02T04:16:18;2.22;;;2.03;;
12908;SDS011;6522;49.622;6.126;2024-03-02T04:19:05;2.60;;;2.35;;
12908;SDS011;6522;49.622;6.126;2024-03-02T04:21:52;2.30;;;2.20;;
12908;SDS011;6522;49.622;6.126;2024-03-02T04:24:38;1.90;;;1.80;;
12908;SDS011;6522;49.622;6.126;2024-03-02T04:27:25;2.25;;;2.15;;
12908;SDS011;6522;49.622;6.126;2024-03-02T04:30:12;2.10;;;2.00;;
12908;SDS011;6522;49.622;6.126;2024-03-02T04:32:58;2.45;;;2.30;;
12908;SDS011;6522;49.622;6.126;2024-03-02T04:35:45;2.40;;;2.30;;
12908;SDS011;6522;49.622;6.126;2024-03-02T04:38:32;2.10;;;1.90;;
12908;SDS011;6522;49.622;6.126;2024-03-02T04:41:18;2.45;;;2.25;;
12908;SDS011;6522;49.622;6.126;2024-03-02T04:44:05;2.62;;;2.42;;
12908;SDS011;6522;49.622;6.126;2024-03-02T04:46:52;2.90;;;2.45;;
12908;SDS011;6522;49.622;6.126;2024-03-02T04:49:39;2.90;;;2.70;;
12908;SDS011;6522;49.622;6.126;2024-03-02T04:52:25;3.40;;;3.05;;
12908;SDS011;6522;49.622;6.126;2024-03-02T04:55:12;2.45;;;2.25;;
12908;SDS011;6522;49.622;6.126;2024-03-02T04:58:14;4.72;;;2.40;;
12908;SDS011;6522;49.622;6.126;2024-03-02T05:01:01;2.30;;;2.20;;
12908;SDS011;6522;49.622;6.126;2024-03-02T05:03:48;2.40;;;2.20;;
12908;SDS011;6522;49.622;6.126;2024-03-02T05:06:34;2.50;;;2.30;;
12908;SDS011;6522;49.622;6.126;2024-03-02T05:09:21;2.70;;;2.50;;
12908;SDS011;6522;49.622;6.126;2024-03-02T05:12:08;2.90;;;2.40;;
12908;SDS011;6522;49.622;6.126;2024-03-02T05:15:14;1.60;;;1.20;;
12908;SDS011;6522;49.622;6.126;2024-03-02T05:18:00;3.08;;;2.87;;
12908;SDS011;6522;49.622;6.126;2024-03-02T05:20:47;2.72;;;2.50;;
12908;SDS011;6522;49.622;6.126;2024-03-02T05:23:34;2.40;;;2.20;;
12908;SDS011;6522;49.622;6.126;2024-03-02T05:26:20;2.20;;;2.10;;
12908;SDS011;6522;49.622;6.126;2024-03-02T05:29:07;2.40;;;2.30;;
12908;SDS011;6522;49.622;6.126;2024-03-02T05:31:54;2.83;;;2.62;;
12908;SDS011;6522;49.622;6.126;2024-03-02T05:34:40;2.00;;;1.90;;
12908;SDS011;6522;49.622;6.126;2024-03-02T05:37:27;2.30;;;2.10;;
12908;SDS011;6522;49.622;6.126;2024-03-02T05:40:14;2.20;;;2.00;;
12908;SDS011;6522;49.622;6.126;2024-03-02T05:43:01;2.37;;;2.17;;
12908;SDS011;6522;49.622;6.126;2024-03-02T05:45:48;2.28;;;2.08;;
12908;SDS011;6522;49.622;6.126;2024-03-02T05:48:34;1.77;;;1.67;;
12908;SDS011;6522;49.622;6.126;2024-03-02T05:51:21;2.70;;;2.50;;
12908;SDS011;6522;49.622;6.126;2024-03-02T05:54:08;2.97;;;2.55;;
12908;SDS011;6522;49.622;6.126;2024-03-02T05:56:54;2.50;;;1.77;;
12908;SDS011;6522;49.622;6.126;2024-03-02T05:59:41;3.25;;;2.83;;
12908;SDS011;6522;49.622;6.126;2024-03-02T06:02:28;3.05;;;2.85;;
12908;SDS011;6522;49.622;6.126;2024-03-02T06:05:15;2.40;;;2.20;;
12908;SDS011;6522;49.622;6.126;2024-03-02T06:08:02;2.92;;;2.72;;
12908;SDS011;6522;49.622;6.126;2024-03-02T06:10:48;2.67;;;2.45;;
12908;SDS011;6522;49.622;6.126;2024-03-02T06:13:35;5.40;;;3.10;;
12908;SDS011;6522;49.622;6.126;2024-03-02T06:16:22;2.70;;;2.50;;
12908;SDS011;6522;49.622;6.126;2024-03-02T06:19:09;2.58;;;2.37;;
12908;SDS011;6522;49.622;6.126;2024-03-02T06:21:56;2.95;;;2.70;;
12908;SDS011;6522;49.622;6.126;2024-03-02T06:24:43;2.60;;;2.40;;
12908;SDS011;6522;49.622;6.126;2024-03-02T06:27:29;2.60;;;2.40;;
12908;SDS011;6522;49.622;6.126;2024-03-02T06:30:16;3.12;;;2.90;;
12908;SDS011;6522;49.622;6.126;2024-03-02T06:33:03;3.65;;;3.28;;
12908;SDS011;6522;49.622;6.126;2024-03-02T06:35:49;2.50;;;2.20;;
12908;SDS011;6522;49.622;6.126;2024-03-02T06:38:36;2.70;;;2.50;;
12908;SDS011;6522;49.622;6.126;2024-03-02T06:41:24;7.40;;;2.70;;
12908;SDS011;6522;49.622;6.126;2024-03-02T06:44:10;2.47;;;2.28;;
12908;SDS011;6522;49.622;6.126;2024-03-02T06:46:57;3.03;;;2.83;;
12908;SDS011;6522;49.622;6.126;2024-03-02T06:49:44;2.90;;;2.70;;
12908;SDS011;6522;49.622;6.126;2024-03-02T06:52:31;2.90;;;2.70;;
12908;SDS011;6522;49.622;6.126;2024-03-02T06:55:17;3.03;;;1.67;;
12908;SDS011;6522;49.622;6.126;2024-03-02T06:58:04;2.50;;;2.30;;
12908;SDS011;6522;49.622;6.126;2024-03-02T07:00:51;5.72;;;3.17;;
12908;SDS011;6522;49.622;6.126;2024-03-02T07:03:38;3.10;;;2.80;;
12908;SDS011;6522;49.622;6.126;2024-03-02T07:06:24;2.60;;;2.40;;
12908;SDS011;6522;49.622;6.126;2024-03-02T07:09:11;3.08;;;2.78;;
12908;SDS011;6522;49.622;6.126;2024-03-02T07:11:58;10.00;;;3.28;;
12908;SDS011;6522;49.622;6.126;2024-03-02T07:14:45;4.82;;;3.08;;
12908;SDS011;6522;49.622;6.126;2024-03-02T07:17:50;3.15;;;1.90;;
12908;SDS011;6522;49.622;6.126;2024-03-02T07:20:37;4.60;;;2.30;;
12908;SDS011;6522;49.622;6.126;2024-03-02T07:23:23;2.60;;;2.40;;
12908;SDS011;6522;49.622;6.126;2024-03-02T07:26:10;2.20;;;2.00;;
12908;SDS011;6522;49.622;6.126;2024-03-02T07:28:57;3.40;;;2.55;;
12908;SDS011;6522;49.622;6.126;2024-03-02T07:31:44;4.15;;;3.80;;
12908;SDS011;6522;49.622;6.126;2024-03-02T07:34:31;4.85;;;4.07;;
12908;SDS011;6522;49.622;6.126;2024-03-02T07:37:17;3.45;;;3.05;;
12908;SDS011;6522;49.622;6.126;2024-03-02T07:40:04;3.80;;;3.50;;
12908;SDS011;6522;49.622;6.126;2024-03-02T07:42:51;4.32;;;3.78;;
12908;SDS011;6522;49.622;6.126;2024-03-02T07:45:38;4.12;;;3.80;;
12908;SDS011;6522;49.622;6.126;2024-03-02T07:48:25;3.60;;;3.35;;
12908;SDS011;6522;49.622;6.126;2024-03-02T07:51:11;3.45;;;3.25;;
12908;SDS011;6522;49.622;6.126;2024-03-02T07:53:58;4.00;;;3.70;;
12908;SDS011;6522;49.622;6.126;2024-03-02T07:56:45;4.68;;;4.28;;
12908;SDS011;6522;49.622;6.126;2024-03-02T07:59:32;3.95;;;3.65;;
12908;SDS011;6522;49.622;6.126;2024-03-02T08:02:19;4.60;;;4.18;;
12908;SDS011;6522;49.622;6.126;2024-03-02T08:05:06;4.00;;;3.60;;
12908;SDS011;6522;49.622;6.126;2024-03-02T08:07:52;4.62;;;4.30;;
12908;SDS011;6522;49.622;6.126;2024-03-02T08:10:39;4.30;;;4.00;;
12908;SDS011;6522;49.622;6.126;2024-03-02T08:13:26;3.97;;;3.78;;
12908;SDS011;6522;49.622;6.126;2024-03-02T08:16:14;4.82;;;4.40;;
12908;SDS011;6522;49.622;6.126;2024-03-02T08:19:00;4.37;;;3.83;;
12908;SDS011;6522;49.622;6.126;2024-03-02T08:21:47;4.10;;;3.72;;
12908;SDS011;6522;49.622;6.126;2024-03-02T08:24:34;4.85;;;4.50;;
12908;SDS011;6522;49.622;6.126;2024-03-02T08:27:21;5.05;;;4.65;;
12908;SDS011;6522;49.622;6.126;2024-03-02T08:30:08;4.35;;;4.05;;
12908;SDS011;6522;49.622;6.126;2024-03-02T08:32:55;4.50;;;4.10;;
12908;SDS011;6522;49.622;6.126;2024-03-02T08:35:41;4.50;;;4.20;;
12908;SDS011;6522;49.622;6.126;2024-03-02T08:38:28;4.30;;;4.00;;
12908;SDS011;6522;49.622;6.126;2024-03-02T08:41:15;5.40;;;5.00;;
12908;SDS011;6522;49.622;6.126;2024-03-02T08:44:02;4.95;;;4.60;;
12908;SDS011;6522;49.622;6.126;2024-03-02T08:46:49;5.32;;;5.03;;
12908;SDS011;6522;49.622;6.126;2024-03-02T08:49:35;6.00;;;5.60;;
12908;SDS011;6522;49.622;6.126;2024-03-02T08:52:22;5.40;;;5.10;;
12908;SDS011;6522;49.622;6.126;2024-03-02T08:55:09;6.15;;;5.65;;
12908;SDS011;6522;49.622;6.126;2024-03-02T08:57:56;6.18;;;5.68;;
12908;SDS011;6522;49.622;6.126;2024-03-02T09:00:42;5.90;;;5.40;;
12908;SDS011;6522;49.622;6.126;2024-03-02T09:03:29;6.22;;;5.62;;
12908;SDS011;6522;49.622;6.126;2024-03-02T09:06:16;3.70;;;3.40;;
12908;SDS011;6522;49.622;6.126;2024-03-02T09:09:08;6.50;;;6.03;;
12908;SDS011;6522;49.622;6.126;2024-03-02T09:11:55;6.82;;;6.32;;
12908;SDS011;6522;49.622;6.126;2024-03-02T09:14:42;5.70;;;5.40;;
12908;SDS011;6522;49.622;6.126;2024-03-02T09:17:29;6.43;;;5.93;;
12908;SDS011;6522;49.622;6.126;2024-03-02T09:20:15;6.57;;;6.18;;
12908;SDS011;6522;49.622;6.126;2024-03-02T09:23:02;5.97;;;5.57;;
12908;SDS011;6522;49.622;6.126;2024-03-02T09:25:49;6.18;;;5.80;;
12908;SDS011;6522;49.622;6.126;2024-03-02T09:28:36;6.50;;;6.20;;
12908;SDS011;6522;49.622;6.126;2024-03-02T09:31:22;6.90;;;6.50;;
12908;SDS011;6522;49.622;6.126;2024-03-02T09:34:09;8.88;;;8.38;;
12908;SDS011;6522;49.622;6.126;2024-03-02T09:36:57;9.80;;;9.30;;
12908;SDS011;6522;49.622;6.126;2024-03-02T09:39:43;10.68;;;10.10;;
12908;SDS011;6522;49.622;6.126;2024-03-02T09:42:30;10.20;;;9.70;;
12908;SDS011;6522;49.622;6.126;2024-03-02T09:45:16;10.80;;;10.20;;
12908;SDS011;6522;49.622;6.126;2024-03-02T09:48:03;13.10;;;12.40;;
12908;SDS011;6522;49.622;6.126;2024-03-02T09:50:51;15.68;;;14.77;;
12908;SDS011;6522;49.622;6.126;2024-03-02T09:53:37;14.05;;;13.50;;
12908;SDS011;6522;49.622;6.126;2024-03-02T09:56:24;14.25;;;13.25;;
12908;SDS011;6522;49.622;6.126;2024-03-02T09:59:11;12.50;;;11.90;;
12908;SDS011;6522;49.622;6.126;2024-03-02T10:01:59;12.37;;;11.77;;
12908;SDS011;6522;49.622;6.126;2024-03-02T10:04:45;11.30;;;10.80;;
12908;SDS011;6522;49.622;6.126;2024-03-02T10:07:32;11.32;;;10.70;;
12908;SDS011;6522;49.622;6.126;2024-03-02T10:10:19;12.30;;;11.32;;
12908;SDS011;6522;49.622;6.126;2024-03-02T10:13:06;14.23;;;13.38;;
12908;SDS011;6522;49.622;6.126;2024-03-02T10:15:52;15.18;;;14.48;;
12908;SDS011;6522;49.622;6.126;2024-03-02T10:18:39;16.35;;;15.57;;
12908;SDS011;6522;49.622;6.126;2024-03-02T10:21:26;16.37;;;15.65;;
12908;SDS011;6522;49.622;6.126;2024-03-02T10:24:12;16.20;;;15.43;;
12908;SDS011;6522;49.622;6.126;2024-03-02T10:26:59;15.90;;;15.10;;
12908;SDS011;6522;49.622;6.126;2024-03-02T10:29:46;16.12;;;15.23;;
12908;SDS011;6522;49.622;6.126;2024-03-02T10:32:32;16.20;;;15.40;;
12908;SDS011;6522;49.622;6.126;2024-03-02T10:35:19;15.40;;;14.68;;
12908;SDS011;6522;49.622;6.126;2024-03-02T10:38:06;15.38;;;14.60;;
12908;SDS011;6522;49.622;6.126;2024-03-02T10:40:53;14.45;;;13.85;;
12908;SDS011;6522;49.622;6.126;2024-03-02T10:43:40;14.32;;;13.73;;
12908;SDS011;6522;49.622;6.126;2024-03-02T10:46:30;14.00;;;13.30;;
12908;SDS011;6522;49.622;6.126;2024-03-02T10:49:16;12.77;;;12.18;;
12908;SDS011;6522;49.622;6.126;2024-03-02T10:52:04;11.68;;;11.18;;
12908;SDS011;6522;49.622;6.126;2024-03-02T10:54:50;11.70;;;11.20;;
12908;SDS011;6522;49.622;6.126;2024-03-02T11:00:27;12.10;;;11.50;;
12908;SDS011;6522;49.622;6.126;2024-03-02T11:03:13;12.30;;;11.70;;
12908;SDS011;6522;49.622;6.126;2024-03-02T11:06:00;11.68;;;11.18;;
12908;SDS011;6522;49.622;6.126;2024-03-02T11:08:46;12.10;;;11.40;;
12908;SDS011;6522;49.622;6.126;2024-03-02T11:11:33;12.02;;;11.43;;
12908;SDS011;6522;49.622;6.126;2024-03-02T11:14:21;11.40;;;10.80;;
12908;SDS011;6522;49.622;6.126;2024-03-02T11:17:07;12.05;;;11.45;;
12908;SDS011;6522;49.622;6.126;2024-03-02T11:19:53;8.90;;;8.40;;
12908;SDS011;6522;49.622;6.126;2024-03-02T11:22:40;8.90;;;8.40;;
12908;SDS011;6522;49.622;6.126;2024-03-02T11:25:27;13.07;;;12.40;;
12908;SDS011;6522;49.622;6.126;2024-03-02T11:28:14;9.50;;;8.90;;
12908;SDS011;6522;49.622;6.126;2024-03-02T11:31:01;13.20;;;12.40;;
12908;SDS011;6522;49.622;6.126;2024-03-02T11:33:48;13.70;;;13.00;;
12908;SDS011;6522;49.622;6.126;2024-03-02T11:36:35;13.30;;;12.60;;
12908;SDS011;6522;49.622;6.126;2024-03-02T11:39:21;14.00;;;13.30;;
12908;SDS011;6522;49.622;6.126;2024-03-02T11:42:08;14.20;;;13.60;;
12908;SDS011;6522;49.622;6.126;2024-03-02T11:44:58;10.88;;;10.18;;
12908;SDS011;6522;49.622;6.126;2024-03-02T11:47:55;15.35;;;14.65;;
12908;SDS011;6522;49.622;6.126;2024-03-02T11:50:36;11.60;;;11.00;;
12908;SDS011;6522;49.622;6.126;2024-03-02T11:53:22;16.83;;;15.80;;
12908;SDS011;6522;49.622;6.126;2024-03-02T11:56:09;16.42;;;15.52;;
12908;SDS011;6522;49.622;6.126;2024-03-02T11:58:56;16.70;;;15.80;;
12908;SDS011;6522;49.622;6.126;2024-03-02T12:01:43;13.10;;;12.40;;
12908;SDS011;6522;49.622;6.126;2024-03-02T12:04:30;17.08;;;16.27;;
12908;SDS011;6522;49.622;6.126;2024-03-02T12:07:20;16.90;;;16.10;;
12908;SDS011;6522;49.622;6.126;2024-03-02T12:10:09;15.88;;;15.15;;
12908;SDS011;6522;49.622;6.126;2024-03-02T12:12:58;15.77;;;15.07;;
12908;SDS011;6522;49.622;6.126;2024-03-02T12:15:42;15.95;;;15.18;;
12908;SDS011;6522;49.622;6.126;2024-03-02T12:18:29;16.40;;;15.38;;
12908;SDS011;6522;49.622;6.126;2024-03-02T12:21:16;16.40;;;15.60;;
12908;SDS011;6522;49.622;6.126;2024-03-02T12:24:02;15.48;;;14.77;;
12908;SDS011;6522;49.622;6.126;2024-03-02T12:26:50;15.73;;;15.02;;
12908;SDS011;6522;49.622;6.126;2024-03-02T12:29:36;15.65;;;14.95;;
12908;SDS011;6522;49.622;6.126;2024-03-02T12:32:23;15.20;;;14.50;;
12908;SDS011;6522;49.622;6.126;2024-03-02T12:35:10;15.80;;;15.10;;
12908;SDS011;6522;49.622;6.126;2024-03-02T12:37:56;16.50;;;15.70;;
12908;SDS011;6522;49.622;6.126;2024-03-02T12:40:43;16.25;;;15.50;;
12908;SDS011;6522;49.622;6.126;2024-03-02T12:43:30;16.90;;;15.98;;
12908;SDS011;6522;49.622;6.126;2024-03-02T12:46:17;16.30;;;15.60;;
12908;SDS011;6522;49.622;6.126;2024-03-02T12:49:10;16.45;;;15.75;;
12908;SDS011;6522;49.622;6.126;2024-03-02T12:51:54;16.20;;;15.40;;
12908;SDS011;6522;49.622;6.126;2024-03-02T12:54:41;17.10;;;16.10;;
12908;SDS011;6522;49.622;6.126;2024-03-02T12:57:28;16.60;;;15.90;;
12908;SDS011;6522;49.622;6.126;2024-03-02T13:00:14;16.48;;;15.77;;
12908;SDS011;6522;49.622;6.126;2024-03-02T13:03:01;17.00;;;15.93;;
12908;SDS011;6522;49.622;6.126;2024-03-02T13:05:48;16.45;;;15.75;;
12908;SDS011;6522;49.622;6.126;2024-03-02T13:08:35;16.40;;;15.70;;
12908;SDS011;6522;49.622;6.126;2024-03-02T13:11:25;17.55;;;16.65;;
12908;SDS011;6522;49.622;6.126;2024-03-02T13:14:11;16.73;;;16.02;;
12908;SDS011;6522;49.622;6.126;2024-03-02T13:16:58;17.20;;;16.40;;
12908;SDS011;6522;49.622;6.126;2024-03-02T13:19:51;16.48;;;15.73;;
12908;SDS011;6522;49.622;6.126;2024-03-02T13:22:38;16.10;;;15.35;;
12908;SDS011;6522;49.622;6.126;2024-03-02T13:25:25;16.45;;;15.75;;
12908;SDS011;6522;49.622;6.126;2024-03-02T13:28:11;12.18;;;11.57;;
12908;SDS011;6522;49.622;6.126;2024-03-02T13:30:58;16.55;;;15.68;;
12908;SDS011;6522;49.622;6.126;2024-03-02T13:33:44;16.80;;;15.80;;
12908;SDS011;6522;49.622;6.126;2024-03-02T13:36:31;16.45;;;15.65;;
12908;SDS011;6522;49.622;6.126;2024-03-02T13:39:18;16.08;;;15.45;;
12908;SDS011;6522;49.622;6.126;2024-03-02T13:42:05;16.50;;;15.80;;
12908;SDS011;6522;49.622;6.126;2024-03-02T13:44:51;16.95;;;16.15;;
12908;SDS011;6522;49.622;6.126;2024-03-02T13:47:38;16.50;;;15.50;;
12908;SDS011;6522;49.622;6.126;2024-03-02T13:50:25;16.10;;;15.40;;
12908;SDS011;6522;49.622;6.126;2024-03-02T13:53:11;15.70;;;15.00;;
12908;SDS011;6522;49.622;6.126;2024-03-02T13:55:58;16.30;;;15.60;;
12908;SDS011;6522;49.622;6.126;2024-03-02T13:58:45;16.05;;;15.35;;
12908;SDS011;6522;49.622;6.126;2024-03-02T14:01:31;16.52;;;15.52;;
12908;SDS011;6522;49.622;6.126;2024-03-02T14:04:18;15.45;;;14.75;;
12908;SDS011;6522;49.622;6.126;2024-03-02T14:07:05;15.52;;;14.93;;
12908;SDS011;6522;49.622;6.126;2024-03-02T14:09:54;15.48;;;14.77;;
12908;SDS011;6522;49.622;6.126;2024-03-02T14:12:41;11.57;;;11.00;;
12908;SDS011;6522;49.622;6.126;2024-03-02T14:15:27;15.57;;;14.98;;
12908;SDS011;6522;49.622;6.126;2024-03-02T14:18:14;15.20;;;14.60;;
12908;SDS011;6522;49.622;6.126;2024-03-02T14:21:01;14.98;;;14.27;;
12908;SDS011;6522;49.622;6.126;2024-03-02T14:23:48;14.80;;;14.20;;
12908;SDS011;6522;49.622;6.126;2024-03-02T14:26:34;14.93;;;14.32;;
12908;SDS011;6522;49.622;6.126;2024-03-02T14:29:21;14.90;;;14.30;;
12908;SDS011;6522;49.622;6.126;2024-03-02T14:32:08;14.15;;;13.52;;
12908;SDS011;6522;49.622;6.126;2024-03-02T14:34:54;14.77;;;13.90;;
12908;SDS011;6522;49.622;6.126;2024-03-02T14:37:41;14.50;;;13.90;;
12908;SDS011;6522;49.622;6.126;2024-03-02T14:40:28;11.23;;;10.63;;
12908;SDS011;6522;49.622;6.126;2024-03-02T14:43:15;15.30;;;14.70;;
12908;SDS011;6522;49.622;6.126;2024-03-02T14:46:02;15.23;;;14.52;;
12908;SDS011;6522;49.622;6.126;2024-03-02T14:48:48;14.60;;;14.00;;
12908;SDS011;6522;49.622;6.126;2024-03-02T14:51:35;11.68;;;11.00;;
12908;SDS011;6522;49.622;6.126;2024-03-02T14:54:22;16.02;;;15.32;;
12908;SDS011;6522;49.622;6.126;2024-03-02T14:57:08;15.95;;;15.25;;
12908;SDS011;6522;49.622;6.126;2024-03-02T14:59:55;16.10;;;15.30;;
12908;SDS011;6522;49.622;6.126;2024-03-02T15:02:42;16.35;;;15.60;;
12908;SDS011;6522;49.622;6.126;2024-03-02T15:05:28;16.10;;;15.40;;
12908;SDS011;6522;49.622;6.126;2024-03-02T15:08:15;15.70;;;14.95;;
12908;SDS011;6522;49.622;6.126;2024-03-02T15:11:01;16.20;;;15.50;;
12908;SDS011;6522;49.622;6.126;2024-03-02T15:13:48;16.20;;;15.50;;
12908;SDS011;6522;49.622;6.126;2024-03-02T15:16:35;16.50;;;15.80;;
12908;SDS011;6522;49.622;6.126;2024-03-02T15:19:22;12.00;;;11.30;;
12908;SDS011;6522;49.622;6.126;2024-03-02T15:22:09;16.50;;;15.80;;
12908;SDS011;6522;49.622;6.126;2024-03-02T15:24:56;12.02;;;11.43;;
12908;SDS011;6522;49.622;6.126;2024-03-02T15:27:42;16.30;;;15.60;;
12908;SDS011;6522;49.622;6.126;2024-03-02T15:30:29;15.60;;;14.90;;
12908;SDS011;6522;49.622;6.126;2024-03-02T15:33:16;15.80;;;15.00;;
12908;SDS011;6522;49.622;6.126;2024-03-02T15:36:03;15.27;;;14.57;;
12908;SDS011;6522;49.622;6.126;2024-03-02T15:38:50;15.70;;;15.00;;
12908;SDS011;6522;49.622;6.126;2024-03-02T15:41:37;15.82;;;15.02;;
12908;SDS011;6522;49.622;6.126;2024-03-02T15:44:24;15.20;;;14.50;;
12908;SDS011;6522;49.622;6.126;2024-03-02T15:47:11;14.70;;;14.00;;
12908;SDS011;6522;49.622;6.126;2024-03-02T15:49:58;15.27;;;14.57;;
12908;SDS011;6522;49.622;6.126;2024-03-02T15:52:45;15.02;;;14.32;;
12908;SDS011;6522;49.622;6.126;2024-03-02T15:55:32;13.82;;;13.20;;
12908;SDS011;6522;49.622;6.126;2024-03-02T15:58:18;13.13;;;12.35;;
12908;SDS011;6522;49.622;6.126;2024-03-02T16:01:05;8.20;;;7.80;;
12908;SDS011;6522;49.622;6.126;2024-03-02T16:03:52;10.90;;;10.40;;
12908;SDS011;6522;49.622;6.126;2024-03-02T16:06:39;10.45;;;9.85;;
12908;SDS011;6522;49.622;6.126;2024-03-02T16:09:26;9.60;;;9.10;;
12908;SDS011;6522;49.622;6.126;2024-03-02T16:12:13;6.57;;;6.18;;
12908;SDS011;6522;49.622;6.126;2024-03-02T16:15:00;12.73;;;8.18;;
12908;SDS011;6522;49.622;6.126;2024-03-02T16:17:46;8.38;;;7.97;;
12908;SDS011;6522;49.622;6.126;2024-03-02T16:20:33;8.52;;;8.02;;
12908;SDS011;6522;49.622;6.126;2024-03-02T16:23:20;5.82;;;5.45;;
12908;SDS011;6522;49.622;6.126;2024-03-02T16:26:07;8.20;;;7.70;;
12908;SDS011;6522;49.622;6.126;2024-03-02T16:28:53;7.25;;;6.85;;
12908;SDS011;6522;49.622;6.126;2024-03-02T16:31:40;6.32;;;5.93;;
12908;SDS011;6522;49.622;6.126;2024-03-02T16:34:27;6.05;;;5.75;;
12908;SDS011;6522;49.622;6.126;2024-03-02T16:37:14;4.25;;;3.85;;
12908;SDS011;6522;49.622;6.126;2024-03-02T16:40:01;3.85;;;3.55;;
12908;SDS011;6522;49.622;6.126;2024-03-02T16:42:48;5.87;;;5.45;;
12908;SDS011;6522;49.622;6.126;2024-03-02T16:45:34;5.03;;;4.62;;
12908;SDS011;6522;49.622;6.126;2024-03-02T16:48:21;5.25;;;4.85;;